Etusivu
METAR-TAF:

METAR-TAF

Lentoasemat :

Hallin lentoasema

Jämsä, Suomi

Leveyspiiri: 61-51N, Pituuspiiri: 024-48E, korkeus merenpinnasta: 143 m

Tämänhetkinen sää

Tämä raportti tehtiin 7 minuuttia sitten, kello 20.20 UTC
Tuuli 3 kn kaakosta
Lämpötila 6°C
Kosteus 65%
Ilmanpaine 1026 hPa
Näkyvyys 10 km tai enemmän
ei pilviä alle 1500 m:ssä eikä cumulonimbus-pilviä

METAR: EFHA 242020Z AUTO 14003KT CAVOK 06/00 Q1026

Aika: 23:27 (20:27 UTC)

Sääennuste

Tämä raportti tehtiin 8 tuntia ja 56 minuuttia sitten, kello 11.31 UTC
Ennuste voimassa 24. päivästä klo 12 UTC - 24. päivään klo 14 UTC
Tuuli 8 kn lännestä/lounaasta
Näkyvyys 10 km tai enemmän
ei pilviä alle 1500 m:ssä eikä cumulonimbus-pilviä

TAF: EFHA 241131Z 2412/2414 25008KT CAVOK

Säähavainnot ja -ennusteet yli 4000 lentoasemalta (METAR- ja TAF-raportit).

Käytössä olevat sääasemat on merkitty karttaan keltaisilla ja punaisilla pisteillä.

Aseta hiiri pisteen päälle nähdäksesi sääaseman nimen.

Klikkaa sitten nähdäksesi säähavainnot ja -ennusteet.

Kartan vaihtaminen: klikkaa mustalla rastilla varustettuja vihreitä pisteitä, niin voit zoomata sisään; viivalla varustettua vihreää pistettä, niin voit zoomata ulos tai vihreitä nuolia, niin pääset viereisille kartoille.


METAR-TAF: